createdAt,value
2022-12-06T00:01:38.887Z,101372.06
2022-12-06T00:04:09.606Z,101369.06
2022-12-06T00:06:47.941Z,101366.63
2022-12-06T00:09:18.860Z,101373.00
2022-12-06T00:11:45.733Z,101367.09
2022-12-06T00:14:12.936Z,101373.78
2022-12-06T00:16:39.938Z,101372.47
2022-12-06T00:19:09.785Z,101369.91
2022-12-06T00:21:40.046Z,101367.03
2022-12-06T00:24:12.472Z,101362.63
2022-12-06T00:26:43.566Z,101364.88
2022-12-06T00:29:23.172Z,101361.03
2022-12-06T00:31:51.093Z,101363.75
2022-12-06T00:34:18.037Z,101356.44
2022-12-06T00:36:48.776Z,101355.19
2022-12-06T00:39:18.011Z,101355.72
2022-12-06T00:41:45.266Z,101359.16
2022-12-06T00:44:12.628Z,101356.22
2022-12-06T00:46:39.974Z,101353.22
2022-12-06T00:49:11.022Z,101355.81
2022-12-06T00:51:38.734Z,101354.63
2022-12-06T00:54:06.911Z,101353.94
2022-12-06T00:56:37.260Z,101355.41
2022-12-06T00:59:04.952Z,101362.72
2022-12-06T01:01:34.004Z,101351.06
2022-12-06T01:04:05.720Z,101350.03
2022-12-06T01:06:39.099Z,101357.44
2022-12-06T01:09:12.775Z,101354.19
2022-12-06T01:11:39.659Z,101349.69
2022-12-06T01:14:06.848Z,101355.00
2022-12-06T01:16:38.462Z,101350.03
2022-12-06T01:19:08.904Z,101341.69
2022-12-06T01:21:37.857Z,101342.53
2022-12-06T01:24:05.136Z,101346.38
2022-12-06T01:26:38.608Z,101346.66
2022-12-06T01:29:05.678Z,101342.88
2022-12-06T01:31:38.175Z,101342.31
2022-12-06T01:34:15.772Z,101336.03
2022-12-06T01:36:45.206Z,101330.09
2022-12-06T01:39:12.668Z,101336.31
2022-12-06T01:41:40.083Z,101329.41
2022-12-06T01:44:27.962Z,101323.66
2022-12-06T01:46:57.680Z,101323.69
2022-12-06T01:49:36.203Z,101325.69
2022-12-06T01:52:08.460Z,101331.75
2022-12-06T01:54:35.812Z,101329.81
2022-12-06T01:57:07.392Z,101321.19
2022-12-06T01:59:34.491Z,101323.81
2022-12-06T02:02:04.518Z,101325.41
2022-12-06T02:04:32.247Z,101329.34
2022-12-06T02:07:01.090Z,101323.28
2022-12-06T02:09:29.932Z,101317.69
2022-12-06T02:11:56.945Z,101320.44
2022-12-06T02:14:35.678Z,101314.13
2022-12-06T02:17:44.893Z,101313.47
2022-12-06T02:20:23.675Z,101303.25
2022-12-06T02:23:16.043Z,101308.88
2022-12-06T02:26:24.670Z,101298.84
2022-12-06T02:29:50.440Z,101300.78
2022-12-06T02:32:57.831Z,101293.09
2022-12-06T02:35:39.607Z,101298.16
2022-12-06T02:38:17.934Z,101297.38
2022-12-06T02:41:00.715Z,101299.66
2022-12-06T02:43:51.139Z,101293.25
2022-12-06T02:46:21.451Z,101291.38
2022-12-06T02:48:50.993Z,101293.63
2022-12-06T02:51:19.591Z,101289.91
2022-12-06T02:53:50.599Z,101287.13
2022-12-06T02:56:20.801Z,101287.72
2022-12-06T02:58:47.806Z,101284.06
2022-12-06T03:01:41.696Z,101289.69
2022-12-06T03:04:49.818Z,101285.19
2022-12-06T03:07:32.493Z,101278.81
2022-12-06T03:10:37.733Z,101285.47
2022-12-06T03:13:32.996Z,101286.50
2022-12-06T03:16:22.073Z,101285.56
2022-12-06T03:18:50.367Z,101282.38
2022-12-06T03:21:32.957Z,101282.84
2022-12-06T03:23:59.962Z,101280.44
2022-12-06T03:26:34.512Z,101282.88
2022-12-06T03:29:06.751Z,101279.47
2022-12-06T03:31:39.112Z,101278.25
2022-12-06T03:34:19.910Z,101280.25
2022-12-06T03:36:50.140Z,101271.84
2022-12-06T03:39:34.931Z,101274.41
2022-12-06T03:42:03.087Z,101272.63
2022-12-06T03:44:35.907Z,101274.47
2022-12-06T03:47:12.509Z,101273.44
2022-12-06T03:49:47.432Z,101268.44
2022-12-06T03:52:14.481Z,101267.88
2022-12-06T03:54:42.421Z,101266.16
2022-12-06T03:57:11.890Z,101265.91
2022-12-06T03:59:38.752Z,101261.41
2022-12-06T04:02:05.824Z,101253.63
2022-12-06T04:04:33.007Z,101251.13
2022-12-06T04:07:02.934Z,101261.59
2022-12-06T04:09:50.500Z,101252.53
2022-12-06T04:12:35.779Z,101259.91
2022-12-06T04:15:04.517Z,101258.31
2022-12-06T04:17:49.828Z,101254.75
2022-12-06T04:20:16.814Z,101257.84
2022-12-06T04:23:02.183Z,101257.59
2022-12-06T04:25:31.907Z,101251.38
2022-12-06T04:28:20.046Z,101242.72
2022-12-06T04:31:05.826Z,101249.56
2022-12-06T04:33:51.465Z,101241.97
2022-12-06T04:36:39.599Z,101233.06
2022-12-06T04:39:06.727Z,101226.59
2022-12-06T04:41:51.980Z,101233.19
2022-12-06T04:44:20.901Z,101223.53
2022-12-06T04:46:47.833Z,101228.66
2022-12-06T04:49:14.732Z,101221.69
2022-12-06T04:51:41.602Z,101222.19
2022-12-06T04:54:10.852Z,101223.28
2022-12-06T04:56:40.735Z,101231.47
2022-12-06T04:59:07.578Z,101215.44
2022-12-06T05:01:36.508Z,101219.84
2022-12-06T05:04:08.267Z,101220.94
2022-12-06T05:06:37.435Z,101216.75
2022-12-06T05:09:05.023Z,101214.16
2022-12-06T05:11:32.106Z,101210.03
2022-12-06T05:14:00.547Z,101211.78
2022-12-06T05:16:27.705Z,101203.06
2022-12-06T05:18:57.366Z,101215.41
2022-12-06T05:21:27.252Z,101200.47
2022-12-06T05:23:55.305Z,101205.88
2022-12-06T05:26:28.493Z,101203.69
2022-12-06T05:28:56.541Z,101198.56
2022-12-06T05:31:24.390Z,101207.75
2022-12-06T05:33:52.774Z,101199.06
2022-12-06T05:36:23.624Z,101211.69
2022-12-06T05:38:54.059Z,101197.13
2022-12-06T05:41:24.350Z,101205.69
2022-12-06T05:43:51.743Z,101216.78
2022-12-06T05:46:23.190Z,101209.09
2022-12-06T05:48:52.679Z,101199.75
2022-12-06T05:51:22.524Z,101213.44
2022-12-06T05:53:49.399Z,101205.09
2022-12-06T05:56:19.350Z,101207.19
2022-12-06T05:58:46.220Z,101220.28
2022-12-06T06:01:15.624Z,101205.31
2022-12-06T06:03:47.740Z,101204.72
2022-12-06T06:06:15.738Z,101203.97
2022-12-06T06:08:45.715Z,101204.03
2022-12-06T06:11:12.560Z,101211.75
2022-12-06T06:13:39.428Z,101211.94
2022-12-06T06:16:06.728Z,101207.63
2022-12-06T06:18:36.364Z,101211.91
2022-12-06T06:21:03.895Z,101205.78
2022-12-06T06:23:35.788Z,101203.28
2022-12-06T06:26:10.282Z,101209.78
2022-12-06T06:28:37.534Z,101206.59
2022-12-06T06:31:08.096Z,101206.84
2022-12-06T06:33:37.967Z,101206.06
2022-12-06T06:36:05.629Z,101205.28
2022-12-06T06:38:34.801Z,101203.81
2022-12-06T06:41:05.601Z,101202.91
2022-12-06T06:43:33.226Z,101205.72
2022-12-06T06:46:03.865Z,101208.09
2022-12-06T06:48:37.251Z,101213.03
2022-12-06T06:51:14.745Z,101215.00
2022-12-06T06:53:41.855Z,101212.44
2022-12-06T06:56:11.268Z,101211.19
2022-12-06T06:58:40.699Z,101218.69
2022-12-06T07:01:09.245Z,101208.56
2022-12-06T07:03:36.294Z,101214.81
2022-12-06T07:06:11.002Z,101210.47
2022-12-06T07:08:40.257Z,101212.94
2022-12-06T07:11:10.544Z,101214.56
2022-12-06T07:13:42.112Z,101220.09
2022-12-06T07:16:15.828Z,101213.94
2022-12-06T07:18:44.371Z,101226.34
2022-12-06T07:21:14.578Z,101227.34
2022-12-06T07:23:41.868Z,101229.06
2022-12-06T07:26:17.868Z,101227.41
2022-12-06T07:28:47.479Z,101226.56
2022-12-06T07:31:24.167Z,101230.63
2022-12-06T07:33:58.859Z,101233.78
2022-12-06T07:36:27.898Z,101230.69
2022-12-06T07:38:57.341Z,101233.78
2022-12-06T07:41:45.854Z,101240.16
2022-12-06T07:44:33.567Z,101237.06
2022-12-06T07:47:03.470Z,101237.66
2022-12-06T07:49:30.726Z,101241.16
2022-12-06T07:52:00.103Z,101243.72
2022-12-06T07:54:29.337Z,101238.97
2022-12-06T07:56:58.498Z,101236.13
2022-12-06T07:59:25.679Z,101237.31
2022-12-06T08:01:53.937Z,101238.75
2022-12-06T08:04:25.652Z,101240.41
2022-12-06T08:06:56.193Z,101241.94
2022-12-06T08:09:24.227Z,101240.00
2022-12-06T08:11:54.044Z,101236.13
2022-12-06T08:14:20.895Z,101241.44
2022-12-06T08:16:50.275Z,101247.63
2022-12-06T08:19:19.260Z,101241.50
2022-12-06T08:21:46.170Z,101241.91
2022-12-06T08:24:15.138Z,101248.00
2022-12-06T08:26:43.140Z,101249.97
2022-12-06T08:29:12.512Z,101246.97
2022-12-06T08:31:42.068Z,101242.59
2022-12-06T08:34:08.959Z,101249.72
2022-12-06T08:36:41.738Z,101240.06
2022-12-06T08:39:12.930Z,101240.84
2022-12-06T08:41:55.595Z,101247.97
2022-12-06T08:44:22.984Z,101245.41
2022-12-06T08:46:50.050Z,101248.63
2022-12-06T08:49:17.450Z,101247.09
2022-12-06T08:51:46.848Z,101241.78
2022-12-06T08:54:21.726Z,101246.88
2022-12-06T08:56:52.244Z,101244.00
2022-12-06T08:59:21.768Z,101236.38
2022-12-06T09:01:48.846Z,101228.09
2022-12-06T09:04:15.933Z,101237.91
2022-12-06T09:06:45.093Z,101233.22
2022-12-06T09:09:17.021Z,101241.69
2022-12-06T09:11:49.297Z,101242.44
2022-12-06T09:14:21.783Z,101248.72
2022-12-06T09:16:51.103Z,101251.59
2022-12-06T09:19:18.860Z,101251.69
2022-12-06T09:21:46.507Z,101249.81
2022-12-06T09:24:16.382Z,101249.00
2022-12-06T09:26:43.645Z,101251.97
2022-12-06T09:29:11.037Z,101254.13
2022-12-06T09:31:40.094Z,101259.34
2022-12-06T09:34:11.989Z,101262.06
2022-12-06T09:36:51.328Z,101270.97
2022-12-06T09:39:33.544Z,101259.00
2022-12-06T09:42:15.224Z,101261.09
2022-12-06T09:45:16.109Z,101262.69
2022-12-06T09:48:47.341Z,101259.75
2022-12-06T09:51:32.563Z,101257.47
2022-12-06T09:54:36.336Z,101254.94
2022-12-06T09:57:24.245Z,101250.09
2022-12-06T10:00:09.850Z,101256.63
2022-12-06T10:03:02.251Z,101258.63
2022-12-06T10:06:02.773Z,101249.78
2022-12-06T10:08:47.201Z,101253.50
2022-12-06T10:11:42.110Z,101254.25
2022-12-06T10:15:01.107Z,101258.88
2022-12-06T10:18:01.752Z,101252.53
2022-12-06T10:20:47.006Z,101254.56
2022-12-06T10:23:18.864Z,101245.25
2022-12-06T10:26:19.211Z,101249.25
2022-12-06T10:28:56.435Z,101243.16
2022-12-06T10:31:37.192Z,101250.97
2022-12-06T10:34:24.451Z,101247.03
2022-12-06T10:37:36.810Z,101242.88
2022-12-06T10:40:20.811Z,101244.41
2022-12-06T10:42:47.641Z,101251.16
2022-12-06T10:45:46.837Z,101241.75
2022-12-06T10:48:52.811Z,101251.44
2022-12-06T10:51:34.503Z,101253.03
2022-12-06T10:54:18.712Z,101258.41
2022-12-06T10:56:47.437Z,101254.97
2022-12-06T10:59:54.346Z,101252.81
2022-12-06T11:02:32.848Z,101248.72
2022-12-06T11:05:05.173Z,101255.41
2022-12-06T11:07:41.998Z,101253.97
2022-12-06T11:10:24.491Z,101247.16
2022-12-06T11:13:00.945Z,101250.28
2022-12-06T11:15:36.174Z,101257.88
2022-12-06T11:18:14.635Z,101254.69
2022-12-06T11:21:06.184Z,101246.00
2022-12-06T11:23:50.810Z,101246.59
2022-12-06T11:26:30.892Z,101243.59
2022-12-06T11:29:06.356Z,101246.53
2022-12-06T11:32:00.142Z,101242.03
2022-12-06T11:34:39.651Z,101240.50
2022-12-06T11:37:08.330Z,101241.31
2022-12-06T11:39:37.848Z,101233.81
2022-12-06T11:42:08.259Z,101230.66
2022-12-06T11:44:49.696Z,101230.59
2022-12-06T11:47:21.953Z,101230.34
2022-12-06T11:49:54.481Z,101224.59
2022-12-06T11:52:47.488Z,101232.25
2022-12-06T11:55:26.671Z,101216.19
2022-12-06T11:58:04.181Z,101217.19
2022-12-06T12:00:33.524Z,101212.25
2022-12-06T12:03:00.479Z,101205.59
2022-12-06T12:05:34.227Z,101200.91
2022-12-06T12:08:19.567Z,101204.00
2022-12-06T12:10:58.718Z,101206.25
2022-12-06T12:13:45.703Z,101198.44
2022-12-06T12:16:24.765Z,101196.91
2022-12-06T12:19:01.751Z,101192.75
2022-12-06T12:21:41.444Z,101192.94
2022-12-06T12:25:18.971Z,101195.84
2022-12-06T12:28:01.208Z,101190.94
2022-12-06T12:30:35.360Z,101188.84
2022-12-06T12:33:07.980Z,101187.13
2022-12-06T12:35:37.513Z,101181.72
2022-12-06T12:38:12.729Z,101177.09
2022-12-06T12:40:44.647Z,101181.75
2022-12-06T12:43:13.465Z,101171.81
2022-12-06T12:46:08.383Z,101183.38
2022-12-06T12:48:37.276Z,101187.06
2022-12-06T12:51:28.106Z,101179.03
2022-12-06T12:54:06.087Z,101173.88
2022-12-06T12:56:38.479Z,101174.81
2022-12-06T12:59:18.409Z,101165.09
2022-12-06T13:01:49.805Z,101167.63
2022-12-06T13:04:36.722Z,101182.53
2022-12-06T13:07:09.705Z,101174.16
2022-12-06T13:09:54.964Z,101185.22
2022-12-06T13:12:52.002Z,101173.03
2022-12-06T13:15:37.336Z,101173.63
2022-12-06T13:18:19.455Z,101169.03
2022-12-06T13:20:50.540Z,101169.66
2022-12-06T13:23:23.929Z,101171.38
2022-12-06T13:26:06.107Z,101169.94
2022-12-06T13:28:40.590Z,101172.53
2022-12-06T13:31:18.243Z,101174.53
2022-12-06T13:33:59.715Z,101167.72
2022-12-06T13:36:33.958Z,101162.16
2022-12-06T13:39:32.986Z,101170.25
2022-12-06T13:42:23.003Z,101171.13
2022-12-06T13:44:59.643Z,101170.38
2022-12-06T13:47:29.502Z,101169.06
2022-12-06T13:50:16.975Z,101167.53
2022-12-06T13:52:43.895Z,101171.66
2022-12-06T13:55:26.276Z,101172.53
2022-12-06T13:57:56.095Z,101161.84
2022-12-06T14:00:29.316Z,101164.88
2022-12-06T14:03:03.463Z,101167.34
2022-12-06T14:06:13.815Z,101171.13
2022-12-06T14:09:08.371Z,101174.31
2022-12-06T14:11:39.952Z,101172.06
2022-12-06T14:14:20.962Z,101171.41
2022-12-06T14:16:59.542Z,101164.88
2022-12-06T14:19:32.471Z,101161.78
2022-12-06T14:22:14.031Z,101160.59
2022-12-06T14:24:59.000Z,101158.56
2022-12-06T14:27:32.139Z,101155.59
2022-12-06T14:30:25.445Z,101156.66
2022-12-06T14:32:57.830Z,101152.72
2022-12-06T14:35:37.980Z,101152.53
2022-12-06T14:38:24.500Z,101145.09
2022-12-06T14:41:11.240Z,101146.81
2022-12-06T14:43:42.912Z,101151.06
2022-12-06T14:46:15.080Z,101160.41
2022-12-06T14:49:02.127Z,101153.91
2022-12-06T14:51:41.419Z,101163.09
2022-12-06T14:54:40.365Z,101155.34
2022-12-06T14:57:30.624Z,101171.91
2022-12-06T15:00:16.055Z,101170.91
2022-12-06T15:03:02.011Z,101178.84
2022-12-06T15:05:40.280Z,101168.22
2022-12-06T15:08:30.569Z,101166.72
2022-12-06T15:10:58.264Z,101168.66
2022-12-06T15:13:28.405Z,101173.47
2022-12-06T15:16:14.404Z,101164.81
2022-12-06T15:18:55.819Z,101168.81
2022-12-06T15:21:22.688Z,101169.34
2022-12-06T15:23:55.295Z,101164.63
2022-12-06T15:26:24.472Z,101156.72
2022-12-06T15:28:55.222Z,101148.09
2022-12-06T15:31:27.802Z,101158.84
2022-12-06T15:33:55.854Z,101161.91
2022-12-06T15:36:35.636Z,101161.84
2022-12-06T15:39:04.971Z,101162.25
2022-12-06T15:41:31.825Z,101167.94
2022-12-06T15:44:01.139Z,101172.69
2022-12-06T15:46:29.831Z,101167.69
2022-12-06T15:48:57.276Z,101171.19
2022-12-06T15:51:26.692Z,101174.38
2022-12-06T15:53:57.281Z,101169.06
2022-12-06T15:56:27.656Z,101172.81
2022-12-06T15:58:57.003Z,101165.19
2022-12-06T16:01:29.854Z,101161.44
2022-12-06T16:03:57.893Z,101162.44
2022-12-06T16:06:27.685Z,101164.03
2022-12-06T16:08:59.191Z,101158.63
2022-12-06T16:11:29.282Z,101162.16
2022-12-06T16:13:56.161Z,101158.34
2022-12-06T16:16:25.777Z,101156.38
2022-12-06T16:18:53.947Z,101164.28
2022-12-06T16:21:50.346Z,101160.84
2022-12-06T16:24:17.321Z,101159.28
2022-12-06T16:26:47.176Z,101159.63
2022-12-06T16:29:23.024Z,101156.00
2022-12-06T16:31:50.986Z,101164.22
2022-12-06T16:34:18.533Z,101150.31
2022-12-06T16:37:00.747Z,101154.44
2022-12-06T16:39:31.585Z,101159.59
2022-12-06T16:42:01.169Z,101162.13
2022-12-06T16:44:32.859Z,101159.44
2022-12-06T16:47:00.181Z,101158.69
2022-12-06T16:49:45.751Z,101158.00
2022-12-06T16:52:13.563Z,101148.91
2022-12-06T16:54:41.483Z,101146.44
2022-12-06T16:57:12.687Z,101159.97
2022-12-06T16:59:40.451Z,101150.34
2022-12-06T17:02:37.888Z,101143.78
2022-12-06T17:05:06.909Z,101145.56
2022-12-06T17:07:39.951Z,101144.72
2022-12-06T17:10:08.078Z,101145.47
2022-12-06T17:12:41.755Z,101150.72
2022-12-06T17:15:19.007Z,101156.72
2022-12-06T17:17:46.881Z,101151.19
2022-12-06T17:20:19.419Z,101158.06
2022-12-06T17:22:48.655Z,101150.50
2022-12-06T17:25:24.161Z,101154.78
2022-12-06T17:27:55.647Z,101161.25
2022-12-06T17:30:23.279Z,101160.28
2022-12-06T17:32:52.398Z,101170.72
2022-12-06T17:35:21.511Z,101158.31
2022-12-06T17:37:48.353Z,101161.69
2022-12-06T17:40:17.724Z,101164.59
2022-12-06T17:43:02.208Z,101161.66
2022-12-06T17:45:29.174Z,101167.03
2022-12-06T17:47:56.095Z,101170.13
2022-12-06T17:50:23.327Z,101161.53
2022-12-06T17:52:52.677Z,101169.22
2022-12-06T17:55:19.509Z,101176.69
2022-12-06T17:57:46.397Z,101167.31
2022-12-06T18:00:18.776Z,101166.31
2022-12-06T18:02:48.787Z,101168.31
2022-12-06T18:05:16.051Z,101166.25
2022-12-06T18:07:43.050Z,101162.94
2022-12-06T18:10:10.542Z,101159.50
2022-12-06T18:12:40.362Z,101155.09
2022-12-06T18:15:30.874Z,101153.69
2022-12-06T18:17:57.762Z,101154.66
2022-12-06T18:20:24.613Z,101153.81
2022-12-06T18:22:51.582Z,101156.47
2022-12-06T18:25:18.414Z,101154.41
2022-12-06T18:27:48.952Z,101154.13
2022-12-06T18:30:18.458Z,101156.56
2022-12-06T18:32:48.327Z,101146.06
2022-12-06T18:35:15.294Z,101144.72
2022-12-06T18:37:44.226Z,101134.22
2022-12-06T18:40:12.448Z,101143.88
2022-12-06T18:42:39.309Z,101141.69
2022-12-06T18:45:09.261Z,101146.69
2022-12-06T18:47:36.241Z,101142.28
2022-12-06T18:50:10.399Z,101141.53
2022-12-06T18:52:37.475Z,101140.22
2022-12-06T18:55:04.687Z,101136.31
2022-12-06T18:57:38.077Z,101139.00
2022-12-06T19:00:06.579Z,101132.00
2022-12-06T19:02:33.629Z,101137.66
2022-12-06T19:05:01.368Z,101139.72
2022-12-06T19:07:28.436Z,101136.47
2022-12-06T19:09:58.279Z,101130.44
2022-12-06T19:12:25.164Z,101128.00
2022-12-06T19:14:52.483Z,101132.16
2022-12-06T19:17:19.339Z,101127.63
2022-12-06T19:19:46.221Z,101121.50
2022-12-06T19:22:16.613Z,101127.25
2022-12-06T19:24:45.590Z,101126.84
2022-12-06T19:27:12.663Z,101119.66
2022-12-06T19:29:41.697Z,101116.97
2022-12-06T19:32:08.581Z,101119.91
2022-12-06T19:34:35.604Z,101121.34
2022-12-06T19:37:02.519Z,101111.59
2022-12-06T19:39:29.363Z,101107.22
2022-12-06T19:42:16.982Z,101115.00
2022-12-06T19:44:43.869Z,101106.66
2022-12-06T19:47:11.501Z,101104.63
2022-12-06T19:49:38.650Z,101107.84
2022-12-06T19:52:07.971Z,101100.81
2022-12-06T19:54:36.929Z,101098.91
2022-12-06T19:57:04.659Z,101098.78
2022-12-06T19:59:34.912Z,101093.03
2022-12-06T20:02:05.137Z,101100.72
2022-12-06T20:04:39.662Z,101089.84
2022-12-06T20:07:06.804Z,101087.28
2022-12-06T20:09:39.271Z,101082.72
2022-12-06T20:12:07.524Z,101079.59
2022-12-06T20:14:47.164Z,101069.03
2022-12-06T20:17:20.535Z,101077.19
2022-12-06T20:19:49.980Z,101064.28
2022-12-06T20:22:22.683Z,101074.84
2022-12-06T20:24:52.323Z,101065.59
2022-12-06T20:27:39.131Z,101067.09
2022-12-06T20:30:06.865Z,101056.88
2022-12-06T20:32:44.444Z,101061.50
2022-12-06T20:35:11.405Z,101055.19
2022-12-06T20:37:41.320Z,101055.69
2022-12-06T20:40:09.292Z,101053.56
2022-12-06T20:42:38.225Z,101041.28
2022-12-06T20:45:08.110Z,101040.28
2022-12-06T20:47:35.151Z,101047.50
2022-12-06T20:50:02.576Z,101036.59
2022-12-06T20:52:32.293Z,101034.19
2022-12-06T20:55:01.577Z,101036.84
2022-12-06T20:57:28.502Z,101031.63
2022-12-06T20:59:55.395Z,101028.56
2022-12-06T21:02:24.821Z,101017.81
2022-12-06T21:04:53.915Z,101018.03
2022-12-06T21:07:21.467Z,101014.16
2022-12-06T21:09:48.397Z,101006.00
2022-12-06T21:12:15.357Z,101006.88
2022-12-06T21:14:42.211Z,101009.94
2022-12-06T21:17:11.349Z,101010.28
2022-12-06T21:19:38.215Z,101011.75
2022-12-06T21:22:08.416Z,101012.38
2022-12-06T21:24:37.946Z,100999.69
2022-12-06T21:27:07.363Z,100993.97
2022-12-06T21:29:34.227Z,101001.50
2022-12-06T21:32:01.747Z,100999.59
2022-12-06T21:34:31.199Z,100995.75
2022-12-06T21:37:00.691Z,100993.00
2022-12-06T21:39:29.859Z,100989.59
2022-12-06T21:41:58.913Z,100985.41
2022-12-06T21:44:28.783Z,100986.88
2022-12-06T21:46:55.789Z,100977.88
2022-12-06T21:49:24.968Z,100981.88
2022-12-06T21:52:00.328Z,100977.13
2022-12-06T21:54:28.137Z,100970.19
2022-12-06T21:56:56.887Z,100968.75
2022-12-06T21:59:24.007Z,100961.41
2022-12-06T22:01:54.775Z,100963.34
2022-12-06T22:04:23.908Z,100965.41
2022-12-06T22:06:53.004Z,100958.63
2022-12-06T22:09:22.188Z,100962.91
2022-12-06T22:11:49.219Z,100951.22
2022-12-06T22:14:20.705Z,100954.50
2022-12-06T22:16:50.496Z,100947.66
2022-12-06T22:19:17.990Z,100939.75
2022-12-06T22:21:47.763Z,100937.91
2022-12-06T22:24:14.905Z,100928.03
2022-12-06T22:26:45.423Z,100933.53
2022-12-06T22:29:15.342Z,100937.94
2022-12-06T22:31:44.424Z,100940.13
2022-12-06T22:34:13.779Z,100934.75
2022-12-06T22:36:40.693Z,100934.28
2022-12-06T22:39:10.500Z,100930.38
2022-12-06T22:41:39.943Z,100928.66
2022-12-06T22:44:14.493Z,100929.50
2022-12-06T22:46:41.443Z,100929.59
2022-12-06T22:49:08.415Z,100927.66
2022-12-06T22:51:38.112Z,100925.53
2022-12-06T22:54:11.024Z,100919.97
2022-12-06T22:56:40.365Z,100919.97
2022-12-06T22:59:09.111Z,100924.69
2022-12-06T23:01:35.978Z,100924.22
2022-12-06T23:04:06.553Z,100927.03
2022-12-06T23:06:35.616Z,100919.69
2022-12-06T23:09:06.592Z,100912.13
2022-12-06T23:11:38.938Z,100907.66
2022-12-06T23:14:08.345Z,100906.78
2022-12-06T23:16:35.456Z,100898.13
2022-12-06T23:19:04.984Z,100907.13
2022-12-06T23:21:36.569Z,100901.50
2022-12-06T23:24:12.605Z,100901.94
2022-12-06T23:26:43.686Z,100896.78
2022-12-06T23:29:11.480Z,100894.53
2022-12-06T23:31:42.096Z,100887.72
2022-12-06T23:34:31.372Z,100885.44
2022-12-06T23:37:00.244Z,100876.13
2022-12-06T23:39:27.101Z,100869.78
2022-12-06T23:41:54.031Z,100868.28
2022-12-06T23:44:21.377Z,100864.22
2022-12-06T23:46:48.265Z,100864.66
2022-12-06T23:49:21.462Z,100860.09
2022-12-06T23:51:49.257Z,100846.91
2022-12-06T23:54:21.723Z,100845.47
2022-12-06T23:56:51.616Z,100839.19
2022-12-06T23:59:18.793Z,100837.63
